Terminal Aerodrome Forecast
Issued by NWS

Home | Current Version | Previous Version | Text Only | Print | Product List | Glossary On
Versions: 1 2 3 4 5 6 7 8 9 10 11 12 13 14 15 16 17 18 19 20 21 22 23 24
000
FTUS41 KGYX 240200 AAA
TAFHIE
TAF AMD
KHIE 240238Z 2403/2424 31008KT P6SM VCSH SCT020 OVC030
     FM240600 28009KT P6SM BKN040 OVC070
     FM241200 30015G25KT P6SM BKN050 BKN080
     FM241600 31018G28KT P6SM BKN050 BKN090=

USA.gov is the U.S. government's official web portal to all federal, state and local government web resources and services.